sensor_id;sensor_type;location;lat;lon;timestamp;P1;durP1;ratioP1;P2;durP2;ratioP2
77423;SDS011;66494;47.172;14.678;2023-05-02T00:00:16;6.70;;;5.53;;
77423;SDS011;66494;47.172;14.678;2023-05-02T00:01:16;7.22;;;5.40;;
77423;SDS011;66494;47.172;14.678;2023-05-02T00:02:16;8.43;;;5.65;;
77423;SDS011;66494;47.172;14.678;2023-05-02T00:03:17;6.55;;;5.20;;
77423;SDS011;66494;47.172;14.678;2023-05-02T00:04:17;9.90;;;5.57;;
77423;SDS011;66494;47.172;14.678;2023-05-02T00:05:17;7.60;;;5.65;;
77423;SDS011;66494;47.172;14.678;2023-05-02T00:06:17;7.82;;;5.75;;
77423;SDS011;66494;47.172;14.678;2023-05-02T00:07:18;6.63;;;5.07;;
77423;SDS011;66494;47.172;14.678;2023-05-02T00:08:19;8.75;;;5.65;;
77423;SDS011;66494;47.172;14.678;2023-05-02T00:09:20;5.93;;;5.15;;
77423;SDS011;66494;47.172;14.678;2023-05-02T00:10:20;6.85;;;5.20;;
77423;SDS011;66494;47.172;14.678;2023-05-02T00:11:20;6.53;;;5.07;;
77423;SDS011;66494;47.172;14.678;2023-05-02T00:13:22;5.53;;;4.33;;
77423;SDS011;66494;47.172;14.678;2023-05-02T00:14:23;5.43;;;4.80;;
77423;SDS011;66494;47.172;14.678;2023-05-02T00:16:24;5.35;;;4.82;;
77423;SDS011;66494;47.172;14.678;2023-05-02T00:17:24;5.30;;;4.25;;
77423;SDS011;66494;47.172;14.678;2023-05-02T00:18:24;7.15;;;5.50;;
77423;SDS011;66494;47.172;14.678;2023-05-02T00:19:25;6.03;;;4.18;;
77423;SDS011;66494;47.172;14.678;2023-05-02T00:20:25;5.00;;;4.10;;
77423;SDS011;66494;47.172;14.678;2023-05-02T00:21:25;7.03;;;5.25;;
77423;SDS011;66494;47.172;14.678;2023-05-02T00:22:28;5.75;;;4.80;;
77423;SDS011;66494;47.172;14.678;2023-05-02T00:23:28;8.35;;;4.60;;
77423;SDS011;66494;47.172;14.678;2023-05-02T00:24:29;7.40;;;5.03;;
77423;SDS011;66494;47.172;14.678;2023-05-02T00:25:29;8.88;;;4.20;;
77423;SDS011;66494;47.172;14.678;2023-05-02T00:26:29;5.32;;;4.40;;
77423;SDS011;66494;47.172;14.678;2023-05-02T00:27:30;6.10;;;4.38;;
77423;SDS011;66494;47.172;14.678;2023-05-02T00:29:32;6.00;;;4.10;;
77423;SDS011;66494;47.172;14.678;2023-05-02T00:30:32;6.18;;;4.30;;
77423;SDS011;66494;47.172;14.678;2023-05-02T00:31:33;5.38;;;4.82;;
77423;SDS011;66494;47.172;14.678;2023-05-02T00:32:34;5.03;;;4.43;;
77423;SDS011;66494;47.172;14.678;2023-05-02T00:33:34;7.40;;;4.88;;
77423;SDS011;66494;47.172;14.678;2023-05-02T00:34:35;5.65;;;4.60;;
77423;SDS011;66494;47.172;14.678;2023-05-02T00:35:35;4.93;;;3.88;;
77423;SDS011;66494;47.172;14.678;2023-05-02T00:36:35;5.38;;;4.55;;
77423;SDS011;66494;47.172;14.678;2023-05-02T00:37:35;5.90;;;5.13;;
77423;SDS011;66494;47.172;14.678;2023-05-02T00:38:36;4.82;;;4.00;;
77423;SDS011;66494;47.172;14.678;2023-05-02T00:39:36;6.80;;;4.68;;
77423;SDS011;66494;47.172;14.678;2023-05-02T00:40:46;5.43;;;4.28;;
77423;SDS011;66494;47.172;14.678;2023-05-02T00:41:46;4.45;;;3.65;;
77423;SDS011;66494;47.172;14.678;2023-05-02T00:42:47;5.30;;;4.72;;
77423;SDS011;66494;47.172;14.678;2023-05-02T00:43:47;4.65;;;4.15;;
77423;SDS011;66494;47.172;14.678;2023-05-02T00:44:47;6.25;;;4.75;;
77423;SDS011;66494;47.172;14.678;2023-05-02T00:45:47;4.50;;;4.03;;
77423;SDS011;66494;47.172;14.678;2023-05-02T00:46:48;5.78;;;4.45;;
77423;SDS011;66494;47.172;14.678;2023-05-02T00:47:48;6.75;;;4.80;;
77423;SDS011;66494;47.172;14.678;2023-05-02T00:48:49;5.22;;;3.70;;
77423;SDS011;66494;47.172;14.678;2023-05-02T00:49:49;5.35;;;4.53;;
77423;SDS011;66494;47.172;14.678;2023-05-02T00:50:50;6.85;;;4.88;;
77423;SDS011;66494;47.172;14.678;2023-05-02T00:51:50;4.90;;;4.40;;
77423;SDS011;66494;47.172;14.678;2023-05-02T00:52:50;6.00;;;4.32;;
77423;SDS011;66494;47.172;14.678;2023-05-02T00:53:50;4.03;;;3.60;;
77423;SDS011;66494;47.172;14.678;2023-05-02T00:54:51;5.90;;;4.40;;
77423;SDS011;66494;47.172;14.678;2023-05-02T00:55:51;6.55;;;4.30;;
77423;SDS011;66494;47.172;14.678;2023-05-02T00:56:53;5.40;;;3.67;;
77423;SDS011;66494;47.172;14.678;2023-05-02T00:57:53;5.05;;;4.45;;
77423;SDS011;66494;47.172;14.678;2023-05-02T00:58:53;5.32;;;4.25;;
77423;SDS011;66494;47.172;14.678;2023-05-02T00:59:54;5.13;;;4.43;;
77423;SDS011;66494;47.172;14.678;2023-05-02T01:04:07;5.47;;;4.05;;
77423;SDS011;66494;47.172;14.678;2023-05-02T01:04:48;6.30;;;4.72;;
77423;SDS011;66494;47.172;14.678;2023-05-02T01:06:05;5.88;;;3.97;;
77423;SDS011;66494;47.172;14.678;2023-05-02T01:08:15;5.10;;;4.60;;
77423;SDS011;66494;47.172;14.678;2023-05-02T01:10:42;6.43;;;4.50;;
77423;SDS011;66494;47.172;14.678;2023-05-02T01:11:57;5.78;;;3.90;;
77423;SDS011;66494;47.172;14.678;2023-05-02T01:13:02;7.68;;;4.75;;
77423;SDS011;66494;47.172;14.678;2023-05-02T01:14:05;5.20;;;4.70;;
77423;SDS011;66494;47.172;14.678;2023-05-02T01:15:08;6.18;;;4.53;;
77423;SDS011;66494;47.172;14.678;2023-05-02T01:16:10;5.75;;;4.60;;
77423;SDS011;66494;47.172;14.678;2023-05-02T01:17:12;6.22;;;4.80;;
77423;SDS011;66494;47.172;14.678;2023-05-02T01:18:13;7.95;;;4.75;;
77423;SDS011;66494;47.172;14.678;2023-05-02T01:19:24;5.22;;;4.43;;
77423;SDS011;66494;47.172;14.678;2023-05-02T01:20:26;5.00;;;4.45;;
77423;SDS011;66494;47.172;14.678;2023-05-02T01:21:27;5.72;;;4.35;;
77423;SDS011;66494;47.172;14.678;2023-05-02T01:22:28;4.93;;;4.40;;
77423;SDS011;66494;47.172;14.678;2023-05-02T01:24:34;6.75;;;5.03;;
77423;SDS011;66494;47.172;14.678;2023-05-02T01:25:59;4.50;;;4.10;;
77423;SDS011;66494;47.172;14.678;2023-05-02T01:29:08;4.95;;;4.43;;
77423;SDS011;66494;47.172;14.678;2023-05-02T01:30:10;6.10;;;4.85;;
77423;SDS011;66494;47.172;14.678;2023-05-02T01:31:11;6.97;;;4.95;;
77423;SDS011;66494;47.172;14.678;2023-05-02T01:32:11;5.95;;;4.43;;
77423;SDS011;66494;47.172;14.678;2023-05-02T01:33:12;5.95;;;5.32;;
77423;SDS011;66494;47.172;14.678;2023-05-02T01:34:13;6.03;;;4.85;;
77423;SDS011;66494;47.172;14.678;2023-05-02T01:35:15;5.80;;;4.43;;
77423;SDS011;66494;47.172;14.678;2023-05-02T01:36:16;6.22;;;4.85;;
77423;SDS011;66494;47.172;14.678;2023-05-02T01:37:16;5.88;;;5.25;;
77423;SDS011;66494;47.172;14.678;2023-05-02T01:38:17;9.57;;;4.85;;
77423;SDS011;66494;47.172;14.678;2023-05-02T01:39:19;5.43;;;4.78;;
77423;SDS011;66494;47.172;14.678;2023-05-02T01:40:19;5.80;;;5.20;;
77423;SDS011;66494;47.172;14.678;2023-05-02T01:41:22;6.53;;;4.60;;
77423;SDS011;66494;47.172;14.678;2023-05-02T01:42:24;7.40;;;5.00;;
77423;SDS011;66494;47.172;14.678;2023-05-02T01:43:25;6.78;;;5.43;;
77423;SDS011;66494;47.172;14.678;2023-05-02T01:44:26;7.70;;;5.10;;
77423;SDS011;66494;47.172;14.678;2023-05-02T01:45:27;4.85;;;4.35;;
77423;SDS011;66494;47.172;14.678;2023-05-02T01:46:29;5.35;;;4.55;;
77423;SDS011;66494;47.172;14.678;2023-05-02T01:47:31;6.53;;;4.70;;
77423;SDS011;66494;47.172;14.678;2023-05-02T01:48:32;8.35;;;4.72;;
77423;SDS011;66494;47.172;14.678;2023-05-02T01:49:33;5.18;;;4.68;;
77423;SDS011;66494;47.172;14.678;2023-05-02T01:50:34;6.10;;;4.68;;
77423;SDS011;66494;47.172;14.678;2023-05-02T01:51:45;6.00;;;5.13;;
77423;SDS011;66494;47.172;14.678;2023-05-02T01:52:46;8.15;;;5.38;;
77423;SDS011;66494;47.172;14.678;2023-05-02T01:53:48;5.65;;;4.40;;
77423;SDS011;66494;47.172;14.678;2023-05-02T01:54:49;5.60;;;4.75;;
77423;SDS011;66494;47.172;14.678;2023-05-02T01:55:50;8.68;;;5.43;;
77423;SDS011;66494;47.172;14.678;2023-05-02T01:57:51;8.50;;;5.17;;
77423;SDS011;66494;47.172;14.678;2023-05-02T01:58:52;6.68;;;5.03;;
77423;SDS011;66494;47.172;14.678;2023-05-02T01:59:55;6.25;;;4.90;;
77423;SDS011;66494;47.172;14.678;2023-05-02T02:00:56;7.30;;;5.00;;
77423;SDS011;66494;47.172;14.678;2023-05-02T02:01:57;6.57;;;4.93;;
77423;SDS011;66494;47.172;14.678;2023-05-02T02:03:58;6.20;;;4.33;;
77423;SDS011;66494;47.172;14.678;2023-05-02T02:04:59;5.90;;;5.07;;
77423;SDS011;66494;47.172;14.678;2023-05-02T02:06:00;6.65;;;5.15;;
77423;SDS011;66494;47.172;14.678;2023-05-02T02:07:02;6.43;;;4.97;;
77423;SDS011;66494;47.172;14.678;2023-05-02T02:08:05;5.70;;;4.70;;
77423;SDS011;66494;47.172;14.678;2023-05-02T02:09:05;8.07;;;4.50;;
77423;SDS011;66494;47.172;14.678;2023-05-02T02:10:06;5.82;;;4.53;;
77423;SDS011;66494;47.172;14.678;2023-05-02T02:11:08;4.78;;;4.30;;
77423;SDS011;66494;47.172;14.678;2023-05-02T02:13:38;5.70;;;4.60;;
77423;SDS011;66494;47.172;14.678;2023-05-02T02:14:41;5.35;;;4.15;;
77423;SDS011;66494;47.172;14.678;2023-05-02T02:15:41;6.05;;;4.40;;
77423;SDS011;66494;47.172;14.678;2023-05-02T02:16:45;5.13;;;4.25;;
77423;SDS011;66494;47.172;14.678;2023-05-02T02:18:46;8.18;;;4.65;;
77423;SDS011;66494;47.172;14.678;2023-05-02T02:19:47;6.75;;;4.97;;
77423;SDS011;66494;47.172;14.678;2023-05-02T02:20:48;5.05;;;4.35;;
77423;SDS011;66494;47.172;14.678;2023-05-02T02:21:49;6.80;;;4.43;;
77423;SDS011;66494;47.172;14.678;2023-05-02T02:22:50;9.20;;;5.38;;
77423;SDS011;66494;47.172;14.678;2023-05-02T02:23:51;4.60;;;4.10;;
77423;SDS011;66494;47.172;14.678;2023-05-02T02:24:53;6.05;;;4.93;;
77423;SDS011;66494;47.172;14.678;2023-05-02T02:25:53;6.95;;;4.47;;
77423;SDS011;66494;47.172;14.678;2023-05-02T02:27:54;6.63;;;4.43;;
77423;SDS011;66494;47.172;14.678;2023-05-02T02:29:55;10.53;;;4.93;;
77423;SDS011;66494;47.172;14.678;2023-05-02T02:30:56;7.00;;;4.90;;
77423;SDS011;66494;47.172;14.678;2023-05-02T02:31:56;7.28;;;5.28;;
77423;SDS011;66494;47.172;14.678;2023-05-02T02:32:56;6.18;;;4.38;;
77423;SDS011;66494;47.172;14.678;2023-05-02T02:33:57;6.75;;;5.03;;
77423;SDS011;66494;47.172;14.678;2023-05-02T02:34:57;8.82;;;4.97;;
77423;SDS011;66494;47.172;14.678;2023-05-02T02:36:06;5.68;;;4.75;;
77423;SDS011;66494;47.172;14.678;2023-05-02T02:37:13;7.70;;;4.25;;
77423;SDS011;66494;47.172;14.678;2023-05-02T02:42:41;7.05;;;4.85;;
77423;SDS011;66494;47.172;14.678;2023-05-02T02:43:58;5.95;;;4.28;;
77423;SDS011;66494;47.172;14.678;2023-05-02T02:47:10;6.35;;;4.70;;
77423;SDS011;66494;47.172;14.678;2023-05-02T02:48:33;6.07;;;5.45;;
77423;SDS011;66494;47.172;14.678;2023-05-02T02:49:48;5.60;;;4.93;;
77423;SDS011;66494;47.172;14.678;2023-05-02T02:50:53;9.95;;;5.88;;
77423;SDS011;66494;47.172;14.678;2023-05-02T02:52:04;6.43;;;5.18;;
77423;SDS011;66494;47.172;14.678;2023-05-02T02:53:06;7.50;;;4.65;;
77423;SDS011;66494;47.172;14.678;2023-05-02T02:55:20;8.07;;;4.88;;
77423;SDS011;66494;47.172;14.678;2023-05-02T02:56:34;7.18;;;5.57;;
77423;SDS011;66494;47.172;14.678;2023-05-02T02:57:57;5.80;;;5.10;;
77423;SDS011;66494;47.172;14.678;2023-05-02T03:00:12;5.57;;;5.05;;
77423;SDS011;66494;47.172;14.678;2023-05-02T03:01:16;8.80;;;5.80;;
77423;SDS011;66494;47.172;14.678;2023-05-02T03:02:18;6.70;;;4.93;;
77423;SDS011;66494;47.172;14.678;2023-05-02T03:03:22;6.45;;;5.28;;
77423;SDS011;66494;47.172;14.678;2023-05-02T03:04:29;6.72;;;5.35;;
77423;SDS011;66494;47.172;14.678;2023-05-02T03:05:30;6.40;;;4.82;;
77423;SDS011;66494;47.172;14.678;2023-05-02T03:06:31;6.70;;;5.10;;
77423;SDS011;66494;47.172;14.678;2023-05-02T03:07:32;4.82;;;4.25;;
77423;SDS011;66494;47.172;14.678;2023-05-02T03:08:39;5.90;;;4.82;;
77423;SDS011;66494;47.172;14.678;2023-05-02T03:09:43;8.38;;;5.47;;
77423;SDS011;66494;47.172;14.678;2023-05-02T03:10:44;5.25;;;4.65;;
77423;SDS011;66494;47.172;14.678;2023-05-02T03:11:44;6.00;;;5.00;;
77423;SDS011;66494;47.172;14.678;2023-05-02T03:12:47;5.93;;;4.95;;
77423;SDS011;66494;47.172;14.678;2023-05-02T03:13:48;5.70;;;4.53;;
77423;SDS011;66494;47.172;14.678;2023-05-02T03:14:48;6.55;;;5.22;;
77423;SDS011;66494;47.172;14.678;2023-05-02T03:16:49;7.55;;;4.72;;
77423;SDS011;66494;47.172;14.678;2023-05-02T03:17:49;5.10;;;4.57;;
77423;SDS011;66494;47.172;14.678;2023-05-02T03:18:50;5.38;;;4.85;;
77423;SDS011;66494;47.172;14.678;2023-05-02T03:19:50;7.45;;;5.13;;
77423;SDS011;66494;47.172;14.678;2023-05-02T03:20:50;8.98;;;5.30;;
77423;SDS011;66494;47.172;14.678;2023-05-02T03:21:51;5.22;;;4.72;;
77423;SDS011;66494;47.172;14.678;2023-05-02T03:22:51;6.20;;;5.22;;
77423;SDS011;66494;47.172;14.678;2023-05-02T03:23:51;6.18;;;5.05;;
77423;SDS011;66494;47.172;14.678;2023-05-02T03:24:52;5.75;;;4.75;;
77423;SDS011;66494;47.172;14.678;2023-05-02T03:25:52;11.25;;;5.78;;
77423;SDS011;66494;47.172;14.678;2023-05-02T03:26:56;6.43;;;4.95;;
77423;SDS011;66494;47.172;14.678;2023-05-02T03:27:56;5.65;;;4.75;;
77423;SDS011;66494;47.172;14.678;2023-05-02T03:28:57;5.90;;;5.20;;
77423;SDS011;66494;47.172;14.678;2023-05-02T03:29:57;5.68;;;4.70;;
77423;SDS011;66494;47.172;14.678;2023-05-02T03:30:57;5.63;;;4.28;;
77423;SDS011;66494;47.172;14.678;2023-05-02T03:31:57;6.10;;;5.35;;
77423;SDS011;66494;47.172;14.678;2023-05-02T03:32:58;6.50;;;5.15;;
77423;SDS011;66494;47.172;14.678;2023-05-02T03:33:59;7.82;;;5.53;;
77423;SDS011;66494;47.172;14.678;2023-05-02T03:35:00;9.48;;;5.57;;
77423;SDS011;66494;47.172;14.678;2023-05-02T03:36:00;6.63;;;5.68;;
77423;SDS011;66494;47.172;14.678;2023-05-02T03:37:00;6.45;;;4.97;;
77423;SDS011;66494;47.172;14.678;2023-05-02T03:38:01;7.90;;;5.28;;
77423;SDS011;66494;47.172;14.678;2023-05-02T03:39:01;7.15;;;5.55;;
77423;SDS011;66494;47.172;14.678;2023-05-02T03:40:01;10.43;;;5.80;;
77423;SDS011;66494;47.172;14.678;2023-05-02T03:41:02;6.22;;;4.45;;
77423;SDS011;66494;47.172;14.678;2023-05-02T03:42:03;5.65;;;4.60;;
77423;SDS011;66494;47.172;14.678;2023-05-02T03:43:04;6.50;;;5.47;;
77423;SDS011;66494;47.172;14.678;2023-05-02T03:44:04;7.10;;;5.55;;
77423;SDS011;66494;47.172;14.678;2023-05-02T03:45:05;6.75;;;5.60;;
77423;SDS011;66494;47.172;14.678;2023-05-02T03:46:07;6.95;;;5.53;;
77423;SDS011;66494;47.172;14.678;2023-05-02T03:47:08;6.45;;;5.15;;
77423;SDS011;66494;47.172;14.678;2023-05-02T03:48:08;7.00;;;5.25;;
77423;SDS011;66494;47.172;14.678;2023-05-02T03:49:08;6.05;;;4.78;;
77423;SDS011;66494;47.172;14.678;2023-05-02T03:50:08;8.80;;;5.43;;
77423;SDS011;66494;47.172;14.678;2023-05-02T03:51:09;7.50;;;5.22;;
77423;SDS011;66494;47.172;14.678;2023-05-02T03:52:09;8.30;;;5.90;;
77423;SDS011;66494;47.172;14.678;2023-05-02T03:53:09;6.47;;;4.55;;
77423;SDS011;66494;47.172;14.678;2023-05-02T03:54:09;8.25;;;4.80;;
77423;SDS011;66494;47.172;14.678;2023-05-02T03:55:10;5.95;;;5.18;;
77423;SDS011;66494;47.172;14.678;2023-05-02T03:56:10;8.18;;;5.53;;
77423;SDS011;66494;47.172;14.678;2023-05-02T03:57:11;6.43;;;5.25;;
77423;SDS011;66494;47.172;14.678;2023-05-02T03:58:11;6.22;;;4.78;;
77423;SDS011;66494;47.172;14.678;2023-05-02T03:59:11;5.63;;;4.95;;
77423;SDS011;66494;47.172;14.678;2023-05-02T04:00:12;5.82;;;4.82;;
77423;SDS011;66494;47.172;14.678;2023-05-02T04:01:13;6.18;;;5.10;;
77423;SDS011;66494;47.172;14.678;2023-05-02T04:02:14;9.77;;;5.65;;
77423;SDS011;66494;47.172;14.678;2023-05-02T04:03:14;5.95;;;4.80;;
77423;SDS011;66494;47.172;14.678;2023-05-02T04:04:14;7.47;;;5.55;;
77423;SDS011;66494;47.172;14.678;2023-05-02T04:05:15;6.38;;;5.32;;
77423;SDS011;66494;47.172;14.678;2023-05-02T04:06:15;6.30;;;5.47;;
77423;SDS011;66494;47.172;14.678;2023-05-02T04:07:15;10.05;;;6.20;;
77423;SDS011;66494;47.172;14.678;2023-05-02T04:08:18;9.02;;;6.68;;
77423;SDS011;66494;47.172;14.678;2023-05-02T04:09:18;7.00;;;6.30;;
77423;SDS011;66494;47.172;14.678;2023-05-02T04:10:23;8.02;;;6.00;;
77423;SDS011;66494;47.172;14.678;2023-05-02T04:11:25;8.20;;;5.88;;
77423;SDS011;66494;47.172;14.678;2023-05-02T04:12:25;7.40;;;4.95;;
77423;SDS011;66494;47.172;14.678;2023-05-02T04:13:26;7.63;;;5.60;;
77423;SDS011;66494;47.172;14.678;2023-05-02T04:14:28;7.22;;;5.85;;
77423;SDS011;66494;47.172;14.678;2023-05-02T04:15:28;8.25;;;4.95;;
77423;SDS011;66494;47.172;14.678;2023-05-02T04:16:28;8.00;;;5.30;;
77423;SDS011;66494;47.172;14.678;2023-05-02T04:17:29;8.73;;;5.35;;
77423;SDS011;66494;47.172;14.678;2023-05-02T04:18:29;5.93;;;5.25;;
77423;SDS011;66494;47.172;14.678;2023-05-02T04:19:30;10.10;;;5.70;;
77423;SDS011;66494;47.172;14.678;2023-05-02T04:20:30;8.23;;;6.38;;
77423;SDS011;66494;47.172;14.678;2023-05-02T04:21:30;8.35;;;6.65;;
77423;SDS011;66494;47.172;14.678;2023-05-02T04:22:31;7.55;;;5.70;;
77423;SDS011;66494;47.172;14.678;2023-05-02T04:24:32;7.37;;;6.30;;
77423;SDS011;66494;47.172;14.678;2023-05-02T04:25:32;9.73;;;6.75;;
77423;SDS011;66494;47.172;14.678;2023-05-02T04:26:32;9.88;;;6.70;;
77423;SDS011;66494;47.172;14.678;2023-05-02T04:27:32;7.22;;;5.85;;
77423;SDS011;66494;47.172;14.678;2023-05-02T04:28:33;7.28;;;5.82;;
77423;SDS011;66494;47.172;14.678;2023-05-02T04:29:34;8.13;;;6.80;;
77423;SDS011;66494;47.172;14.678;2023-05-02T04:30:34;6.30;;;5.50;;
77423;SDS011;66494;47.172;14.678;2023-05-02T04:31:35;10.60;;;6.78;;
77423;SDS011;66494;47.172;14.678;2023-05-02T04:32:35;10.02;;;7.25;;
77423;SDS011;66494;47.172;14.678;2023-05-02T04:33:36;6.82;;;5.85;;
77423;SDS011;66494;47.172;14.678;2023-05-02T04:34:36;9.68;;;6.20;;
77423;SDS011;66494;47.172;14.678;2023-05-02T04:35:38;8.57;;;6.00;;
77423;SDS011;66494;47.172;14.678;2023-05-02T04:36:38;8.18;;;6.13;;
77423;SDS011;66494;47.172;14.678;2023-05-02T04:37:39;9.82;;;7.53;;
77423;SDS011;66494;47.172;14.678;2023-05-02T04:38:39;7.75;;;6.25;;
77423;SDS011;66494;47.172;14.678;2023-05-02T04:39:39;8.20;;;6.43;;
77423;SDS011;66494;47.172;14.678;2023-05-02T04:40:40;8.25;;;6.32;;
77423;SDS011;66494;47.172;14.678;2023-05-02T04:41:40;10.25;;;7.53;;
77423;SDS011;66494;47.172;14.678;2023-05-02T04:42:42;9.73;;;7.35;;
77423;SDS011;66494;47.172;14.678;2023-05-02T04:43:42;8.45;;;6.75;;
77423;SDS011;66494;47.172;14.678;2023-05-02T04:44:43;9.82;;;7.10;;
77423;SDS011;66494;47.172;14.678;2023-05-02T04:45:43;9.45;;;6.80;;
77423;SDS011;66494;47.172;14.678;2023-05-02T04:46:43;9.30;;;6.32;;
77423;SDS011;66494;47.172;14.678;2023-05-02T04:47:43;7.40;;;5.97;;
77423;SDS011;66494;47.172;14.678;2023-05-02T04:48:44;7.97;;;6.28;;
77423;SDS011;66494;47.172;14.678;2023-05-02T04:49:44;9.43;;;5.90;;
77423;SDS011;66494;47.172;14.678;2023-05-02T04:50:44;8.48;;;6.22;;
77423;SDS011;66494;47.172;14.678;2023-05-02T04:52:45;8.73;;;6.03;;
77423;SDS011;66494;47.172;14.678;2023-05-02T04:53:46;8.63;;;5.90;;
77423;SDS011;66494;47.172;14.678;2023-05-02T04:54:46;7.35;;;6.03;;
77423;SDS011;66494;47.172;14.678;2023-05-02T04:55:46;8.70;;;6.80;;
77423;SDS011;66494;47.172;14.678;2023-05-02T04:56:47;7.75;;;6.13;;
77423;SDS011;66494;47.172;14.678;2023-05-02T04:57:47;7.65;;;6.50;;
77423;SDS011;66494;47.172;14.678;2023-05-02T04:58:47;7.80;;;5.85;;
77423;SDS011;66494;47.172;14.678;2023-05-02T04:59:48;8.18;;;5.97;;
77423;SDS011;66494;47.172;14.678;2023-05-02T05:00:48;7.50;;;6.28;;
77423;SDS011;66494;47.172;14.678;2023-05-02T05:01:48;10.35;;;6.95;;
77423;SDS011;66494;47.172;14.678;2023-05-02T05:02:48;9.18;;;6.88;;
77423;SDS011;66494;47.172;14.678;2023-05-02T05:03:49;7.53;;;6.25;;
77423;SDS011;66494;47.172;14.678;2023-05-02T05:04:49;7.70;;;6.18;;
77423;SDS011;66494;47.172;14.678;2023-05-02T05:05:49;7.90;;;6.15;;
77423;SDS011;66494;47.172;14.678;2023-05-02T05:06:49;9.68;;;6.93;;
77423;SDS011;66494;47.172;14.678;2023-05-02T05:07:50;9.18;;;7.22;;
77423;SDS011;66494;47.172;14.678;2023-05-02T05:08:51;10.27;;;7.80;;
77423;SDS011;66494;47.172;14.678;2023-05-02T05:09:51;10.05;;;7.88;;
77423;SDS011;66494;47.172;14.678;2023-05-02T05:10:52;12.45;;;8.25;;
77423;SDS011;66494;47.172;14.678;2023-05-02T05:11:52;9.93;;;7.90;;
77423;SDS011;66494;47.172;14.678;2023-05-02T05:12:52;10.88;;;6.78;;
77423;SDS011;66494;47.172;14.678;2023-05-02T05:13:52;7.80;;;6.97;;
77423;SDS011;66494;47.172;14.678;2023-05-02T05:14:52;7.07;;;6.38;;
77423;SDS011;66494;47.172;14.678;2023-05-02T05:15:53;9.23;;;6.43;;
77423;SDS011;66494;47.172;14.678;2023-05-02T05:16:53;7.80;;;5.82;;
77423;SDS011;66494;47.172;14.678;2023-05-02T05:17:54;7.05;;;6.35;;
77423;SDS011;66494;47.172;14.678;2023-05-02T05:18:54;9.05;;;6.88;;
77423;SDS011;66494;47.172;14.678;2023-05-02T05:19:54;7.85;;;6.15;;
77423;SDS011;66494;47.172;14.678;2023-05-02T05:20:54;7.97;;;6.65;;
77423;SDS011;66494;47.172;14.678;2023-05-02T05:21:55;10.98;;;6.50;;
77423;SDS011;66494;47.172;14.678;2023-05-02T05:22:55;8.82;;;7.05;;
77423;SDS011;66494;47.172;14.678;2023-05-02T05:23:56;9.88;;;7.53;;
77423;SDS011;66494;47.172;14.678;2023-05-02T05:24:56;9.52;;;7.45;;
77423;SDS011;66494;47.172;14.678;2023-05-02T05:25:56;11.40;;;6.90;;
77423;SDS011;66494;47.172;14.678;2023-05-02T05:26:56;8.50;;;6.95;;
77423;SDS011;66494;47.172;14.678;2023-05-02T05:27:58;8.93;;;7.28;;
77423;SDS011;66494;47.172;14.678;2023-05-02T05:28:58;8.73;;;6.70;;
77423;SDS011;66494;47.172;14.678;2023-05-02T05:29:58;11.18;;;8.15;;
77423;SDS011;66494;47.172;14.678;2023-05-02T05:31:03;7.75;;;6.70;;
77423;SDS011;66494;47.172;14.678;2023-05-02T05:32:03;9.57;;;6.75;;
77423;SDS011;66494;47.172;14.678;2023-05-02T05:33:05;9.38;;;6.82;;
77423;SDS011;66494;47.172;14.678;2023-05-02T05:34:05;9.52;;;6.90;;
77423;SDS011;66494;47.172;14.678;2023-05-02T05:35:05;8.95;;;6.20;;
77423;SDS011;66494;47.172;14.678;2023-05-02T05:36:06;9.43;;;6.18;;
77423;SDS011;66494;47.172;14.678;2023-05-02T05:37:07;9.18;;;6.95;;
77423;SDS011;66494;47.172;14.678;2023-05-02T05:38:07;10.95;;;8.93;;
77423;SDS011;66494;47.172;14.678;2023-05-02T05:39:07;11.23;;;7.20;;
77423;SDS011;66494;47.172;14.678;2023-05-02T05:40:08;15.43;;;10.25;;
77423;SDS011;66494;47.172;14.678;2023-05-02T05:41:08;33.00;;;19.98;;
77423;SDS011;66494;47.172;14.678;2023-05-02T05:42:10;79.93;;;52.08;;
77423;SDS011;66494;47.172;14.678;2023-05-02T05:43:10;148.85;;;100.63;;
77423;SDS011;66494;47.172;14.678;2023-05-02T05:44:10;256.75;;;189.27;;
77423;SDS011;66494;47.172;14.678;2023-05-02T05:45:10;145.52;;;99.22;;
77423;SDS011;66494;47.172;14.678;2023-05-02T05:46:11;31.75;;;23.30;;
77423;SDS011;66494;47.172;14.678;2023-05-02T05:47:11;133.43;;;94.45;;
77423;SDS011;66494;47.172;14.678;2023-05-02T05:48:11;30.55;;;22.00;;
77423;SDS011;66494;47.172;14.678;2023-05-02T05:49:14;13.40;;;8.80;;
77423;SDS011;66494;47.172;14.678;2023-05-02T05:50:14;10.40;;;8.30;;
77423;SDS011;66494;47.172;14.678;2023-05-02T05:51:14;8.18;;;6.68;;
77423;SDS011;66494;47.172;14.678;2023-05-02T05:52:15;9.43;;;7.25;;
77423;SDS011;66494;47.172;14.678;2023-05-02T05:53:15;8.48;;;7.18;;
77423;SDS011;66494;47.172;14.678;2023-05-02T05:54:15;10.05;;;7.75;;
77423;SDS011;66494;47.172;14.678;2023-05-02T05:55:16;11.57;;;7.57;;
77423;SDS011;66494;47.172;14.678;2023-05-02T05:56:16;13.18;;;8.60;;
77423;SDS011;66494;47.172;14.678;2023-05-02T05:57:17;9.63;;;6.68;;
77423;SDS011;66494;47.172;14.678;2023-05-02T05:58:17;8.73;;;7.20;;
77423;SDS011;66494;47.172;14.678;2023-05-02T05:59:17;11.07;;;6.90;;
77423;SDS011;66494;47.172;14.678;2023-05-02T06:00:18;8.20;;;6.78;;
77423;SDS011;66494;47.172;14.678;2023-05-02T06:01:18;9.88;;;6.90;;
77423;SDS011;66494;47.172;14.678;2023-05-02T06:02:19;7.97;;;6.32;;
77423;SDS011;66494;47.172;14.678;2023-05-02T06:03:19;12.10;;;6.53;;
77423;SDS011;66494;47.172;14.678;2023-05-02T06:04:19;8.80;;;6.57;;
77423;SDS011;66494;47.172;14.678;2023-05-02T06:05:19;8.48;;;6.15;;
77423;SDS011;66494;47.172;14.678;2023-05-02T06:06:20;8.20;;;6.35;;
77423;SDS011;66494;47.172;14.678;2023-05-02T06:07:20;8.23;;;6.72;;
77423;SDS011;66494;47.172;14.678;2023-05-02T06:08:20;7.35;;;5.53;;
77423;SDS011;66494;47.172;14.678;2023-05-02T06:09:20;7.57;;;6.00;;
77423;SDS011;66494;47.172;14.678;2023-05-02T06:10:21;7.80;;;6.57;;
77423;SDS011;66494;47.172;14.678;2023-05-02T06:11:21;8.50;;;6.57;;
77423;SDS011;66494;47.172;14.678;2023-05-02T06:12:23;7.50;;;5.72;;
77423;SDS011;66494;47.172;14.678;2023-05-02T06:13:23;8.55;;;5.93;;
77423;SDS011;66494;47.172;14.678;2023-05-02T06:14:23;8.88;;;6.40;;
77423;SDS011;66494;47.172;14.678;2023-05-02T06:15:24;7.30;;;5.40;;
77423;SDS011;66494;47.172;14.678;2023-05-02T06:16:24;6.90;;;5.78;;
77423;SDS011;66494;47.172;14.678;2023-05-02T06:17:24;8.20;;;6.10;;
77423;SDS011;66494;47.172;14.678;2023-05-02T06:18:25;6.65;;;5.57;;
77423;SDS011;66494;47.172;14.678;2023-05-02T06:19:25;9.27;;;6.75;;
77423;SDS011;66494;47.172;14.678;2023-05-02T06:20:26;9.77;;;8.20;;
77423;SDS011;66494;47.172;14.678;2023-05-02T06:21:26;9.55;;;7.20;;
77423;SDS011;66494;47.172;14.678;2023-05-02T06:22:26;9.38;;;6.32;;
77423;SDS011;66494;47.172;14.678;2023-05-02T06:23:26;9.85;;;6.75;;
77423;SDS011;66494;47.172;14.678;2023-05-02T06:24:27;6.72;;;5.80;;
77423;SDS011;66494;47.172;14.678;2023-05-02T06:25:27;10.43;;;6.90;;
77423;SDS011;66494;47.172;14.678;2023-05-02T06:26:27;7.80;;;7.00;;
77423;SDS011;66494;47.172;14.678;2023-05-02T06:27:28;9.68;;;6.60;;
77423;SDS011;66494;47.172;14.678;2023-05-02T06:28:29;10.40;;;5.93;;
77423;SDS011;66494;47.172;14.678;2023-05-02T06:29:29;8.43;;;6.20;;
77423;SDS011;66494;47.172;14.678;2023-05-02T06:30:29;9.05;;;6.35;;
77423;SDS011;66494;47.172;14.678;2023-05-02T06:31:30;8.68;;;6.60;;
77423;SDS011;66494;47.172;14.678;2023-05-02T06:32:30;7.95;;;6.25;;
77423;SDS011;66494;47.172;14.678;2023-05-02T06:33:31;7.88;;;5.95;;